sensor_id;sensor_type;location;lat;lon;timestamp;P1;durP1;ratioP1;P2;durP2;ratioP2
30539;SDS011;17321;46.312;4.776;2023-04-16T00:00:26;10.95;;;7.60;;
30539;SDS011;17321;46.312;4.776;2023-04-16T00:02:52;15.32;;;7.32;;
30539;SDS011;17321;46.312;4.776;2023-04-16T00:05:18;11.15;;;8.23;;
30539;SDS011;17321;46.312;4.776;2023-04-16T00:07:44;10.73;;;7.95;;
30539;SDS011;17321;46.312;4.776;2023-04-16T00:10:10;11.55;;;9.20;;
30539;SDS011;17321;46.312;4.776;2023-04-16T00:12:36;9.15;;;8.25;;
30539;SDS011;17321;46.312;4.776;2023-04-16T00:15:03;9.73;;;8.60;;
30539;SDS011;17321;46.312;4.776;2023-04-16T00:17:29;10.13;;;7.80;;
30539;SDS011;17321;46.312;4.776;2023-04-16T00:19:55;12.00;;;8.77;;
30539;SDS011;17321;46.312;4.776;2023-04-16T00:22:21;8.88;;;8.00;;
30539;SDS011;17321;46.312;4.776;2023-04-16T00:24:47;11.35;;;8.73;;
30539;SDS011;17321;46.312;4.776;2023-04-16T00:27:13;11.43;;;8.73;;
30539;SDS011;17321;46.312;4.776;2023-04-16T00:29:39;10.38;;;8.18;;
30539;SDS011;17321;46.312;4.776;2023-04-16T00:32:05;13.77;;;9.05;;
30539;SDS011;17321;46.312;4.776;2023-04-16T00:34:32;11.25;;;8.57;;
30539;SDS011;17321;46.312;4.776;2023-04-16T00:36:58;11.27;;;8.32;;
30539;SDS011;17321;46.312;4.776;2023-04-16T00:39:24;16.38;;;9.55;;
30539;SDS011;17321;46.312;4.776;2023-04-16T00:41:50;11.38;;;8.75;;
30539;SDS011;17321;46.312;4.776;2023-04-16T00:44:16;16.63;;;9.90;;
30539;SDS011;17321;46.312;4.776;2023-04-16T00:46:42;11.60;;;8.32;;
30539;SDS011;17321;46.312;4.776;2023-04-16T00:49:09;12.20;;;9.27;;
30539;SDS011;17321;46.312;4.776;2023-04-16T00:51:35;12.45;;;8.40;;
30539;SDS011;17321;46.312;4.776;2023-04-16T00:54:01;15.15;;;9.45;;
30539;SDS011;17321;46.312;4.776;2023-04-16T00:56:28;14.15;;;8.82;;
30539;SDS011;17321;46.312;4.776;2023-04-16T00:58:55;13.15;;;8.98;;
30539;SDS011;17321;46.312;4.776;2023-04-16T01:01:21;13.70;;;9.30;;
30539;SDS011;17321;46.312;4.776;2023-04-16T01:03:47;10.30;;;9.07;;
30539;SDS011;17321;46.312;4.776;2023-04-16T01:06:15;13.88;;;9.57;;
30539;SDS011;17321;46.312;4.776;2023-04-16T01:08:41;14.05;;;9.45;;
30539;SDS011;17321;46.312;4.776;2023-04-16T01:11:08;12.10;;;9.50;;
30539;SDS011;17321;46.312;4.776;2023-04-16T01:13:35;13.98;;;9.63;;
30539;SDS011;17321;46.312;4.776;2023-04-16T01:16:04;12.95;;;10.32;;
30539;SDS011;17321;46.312;4.776;2023-04-16T01:18:31;11.02;;;9.23;;
30539;SDS011;17321;46.312;4.776;2023-04-16T01:20:57;15.57;;;9.98;;
30539;SDS011;17321;46.312;4.776;2023-04-16T01:23:23;12.48;;;9.60;;
30539;SDS011;17321;46.312;4.776;2023-04-16T01:25:49;15.70;;;8.73;;
30539;SDS011;17321;46.312;4.776;2023-04-16T01:28:15;11.90;;;9.30;;
30539;SDS011;17321;46.312;4.776;2023-04-16T01:30:41;12.82;;;9.15;;
30539;SDS011;17321;46.312;4.776;2023-04-16T01:33:10;13.75;;;9.60;;
30539;SDS011;17321;46.312;4.776;2023-04-16T01:38:02;11.00;;;8.75;;
30539;SDS011;17321;46.312;4.776;2023-04-16T01:40:30;13.32;;;9.02;;
30539;SDS011;17321;46.312;4.776;2023-04-16T01:42:56;12.93;;;8.77;;
30539;SDS011;17321;46.312;4.776;2023-04-16T01:45:22;12.27;;;9.07;;
30539;SDS011;17321;46.312;4.776;2023-04-16T01:47:48;12.50;;;9.27;;
30539;SDS011;17321;46.312;4.776;2023-04-16T01:50:15;17.98;;;9.15;;
30539;SDS011;17321;46.312;4.776;2023-04-16T01:52:42;17.50;;;9.57;;
30539;SDS011;17321;46.312;4.776;2023-04-16T01:55:08;11.18;;;8.98;;
30539;SDS011;17321;46.312;4.776;2023-04-16T01:57:35;18.42;;;8.43;;
30539;SDS011;17321;46.312;4.776;2023-04-16T02:00:01;10.20;;;8.35;;
30539;SDS011;17321;46.312;4.776;2023-04-16T02:02:27;13.77;;;8.68;;
30539;SDS011;17321;46.312;4.776;2023-04-16T02:04:53;12.77;;;8.75;;
30539;SDS011;17321;46.312;4.776;2023-04-16T02:07:23;10.07;;;8.05;;
30539;SDS011;17321;46.312;4.776;2023-04-16T02:09:50;11.43;;;8.50;;
30539;SDS011;17321;46.312;4.776;2023-04-16T02:12:16;9.93;;;8.63;;
30539;SDS011;17321;46.312;4.776;2023-04-16T02:14:42;12.40;;;9.30;;
30539;SDS011;17321;46.312;4.776;2023-04-16T02:17:09;9.38;;;8.05;;
30539;SDS011;17321;46.312;4.776;2023-04-16T02:19:35;13.35;;;8.43;;
30539;SDS011;17321;46.312;4.776;2023-04-16T02:22:01;15.35;;;9.73;;
30539;SDS011;17321;46.312;4.776;2023-04-16T02:24:27;14.27;;;9.02;;
30539;SDS011;17321;46.312;4.776;2023-04-16T02:26:54;10.30;;;8.07;;
30539;SDS011;17321;46.312;4.776;2023-04-16T02:29:21;9.60;;;8.00;;
30539;SDS011;17321;46.312;4.776;2023-04-16T02:31:47;15.48;;;9.02;;
30539;SDS011;17321;46.312;4.776;2023-04-16T02:34:13;14.30;;;9.68;;
30539;SDS011;17321;46.312;4.776;2023-04-16T02:36:40;14.20;;;9.20;;
30539;SDS011;17321;46.312;4.776;2023-04-16T02:39:06;15.52;;;10.25;;
30539;SDS011;17321;46.312;4.776;2023-04-16T02:41:32;17.85;;;10.13;;
30539;SDS011;17321;46.312;4.776;2023-04-16T02:43:58;13.05;;;9.38;;
30539;SDS011;17321;46.312;4.776;2023-04-16T02:46:25;14.57;;;9.13;;
30539;SDS011;17321;46.312;4.776;2023-04-16T02:48:51;9.32;;;8.23;;
30539;SDS011;17321;46.312;4.776;2023-04-16T02:51:17;13.45;;;8.95;;
30539;SDS011;17321;46.312;4.776;2023-04-16T02:53:43;10.23;;;8.43;;
30539;SDS011;17321;46.312;4.776;2023-04-16T02:56:10;10.82;;;9.73;;
30539;SDS011;17321;46.312;4.776;2023-04-16T02:58:37;14.63;;;9.85;;
30539;SDS011;17321;46.312;4.776;2023-04-16T03:01:03;15.23;;;9.25;;
30539;SDS011;17321;46.312;4.776;2023-04-16T03:03:29;13.60;;;9.02;;
30539;SDS011;17321;46.312;4.776;2023-04-16T03:05:55;17.20;;;10.00;;
30539;SDS011;17321;46.312;4.776;2023-04-16T03:08:21;13.63;;;9.63;;
30539;SDS011;17321;46.312;4.776;2023-04-16T03:10:48;16.10;;;9.10;;
30539;SDS011;17321;46.312;4.776;2023-04-16T03:13:14;17.42;;;9.93;;
30539;SDS011;17321;46.312;4.776;2023-04-16T03:15:40;16.90;;;10.77;;
30539;SDS011;17321;46.312;4.776;2023-04-16T03:18:06;13.98;;;10.13;;
30539;SDS011;17321;46.312;4.776;2023-04-16T03:20:32;13.43;;;10.23;;
30539;SDS011;17321;46.312;4.776;2023-04-16T03:22:58;12.40;;;8.63;;
30539;SDS011;17321;46.312;4.776;2023-04-16T03:25:24;17.17;;;10.63;;
30539;SDS011;17321;46.312;4.776;2023-04-16T03:27:50;14.27;;;9.13;;
30539;SDS011;17321;46.312;4.776;2023-04-16T03:30:16;13.63;;;8.80;;
30539;SDS011;17321;46.312;4.776;2023-04-16T03:32:42;12.88;;;8.82;;
30539;SDS011;17321;46.312;4.776;2023-04-16T03:35:09;14.68;;;10.43;;
30539;SDS011;17321;46.312;4.776;2023-04-16T03:37:36;13.00;;;10.05;;
30539;SDS011;17321;46.312;4.776;2023-04-16T03:40:03;12.90;;;9.43;;
30539;SDS011;17321;46.312;4.776;2023-04-16T03:42:32;15.48;;;10.10;;
30539;SDS011;17321;46.312;4.776;2023-04-16T03:44:58;15.45;;;10.15;;
30539;SDS011;17321;46.312;4.776;2023-04-16T03:47:25;15.70;;;10.52;;
30539;SDS011;17321;46.312;4.776;2023-04-16T03:49:51;13.35;;;9.65;;
30539;SDS011;17321;46.312;4.776;2023-04-16T03:52:17;15.60;;;9.82;;
30539;SDS011;17321;46.312;4.776;2023-04-16T03:54:43;14.52;;;9.77;;
30539;SDS011;17321;46.312;4.776;2023-04-16T03:57:09;14.75;;;9.45;;
30539;SDS011;17321;46.312;4.776;2023-04-16T03:59:35;11.65;;;9.73;;
30539;SDS011;17321;46.312;4.776;2023-04-16T04:02:01;15.32;;;10.07;;
30539;SDS011;17321;46.312;4.776;2023-04-16T04:04:27;17.58;;;10.40;;
30539;SDS011;17321;46.312;4.776;2023-04-16T04:06:53;17.23;;;9.77;;
30539;SDS011;17321;46.312;4.776;2023-04-16T04:09:20;18.10;;;10.38;;
30539;SDS011;17321;46.312;4.776;2023-04-16T04:11:46;13.77;;;10.18;;
30539;SDS011;17321;46.312;4.776;2023-04-16T04:14:12;16.58;;;9.63;;
30539;SDS011;17321;46.312;4.776;2023-04-16T04:16:38;12.43;;;9.55;;
30539;SDS011;17321;46.312;4.776;2023-04-16T04:19:04;14.63;;;10.05;;
30539;SDS011;17321;46.312;4.776;2023-04-16T04:21:30;18.77;;;11.82;;
30539;SDS011;17321;46.312;4.776;2023-04-16T04:23:57;11.57;;;9.65;;
30539;SDS011;17321;46.312;4.776;2023-04-16T04:29:27;13.35;;;9.52;;
30539;SDS011;17321;46.312;4.776;2023-04-16T04:31:53;17.50;;;10.55;;
30539;SDS011;17321;46.312;4.776;2023-04-16T04:34:19;19.65;;;11.50;;
30539;SDS011;17321;46.312;4.776;2023-04-16T04:36:45;18.20;;;9.75;;
30539;SDS011;17321;46.312;4.776;2023-04-16T04:39:11;15.70;;;9.85;;
30539;SDS011;17321;46.312;4.776;2023-04-16T04:41:37;17.20;;;10.45;;
30539;SDS011;17321;46.312;4.776;2023-04-16T04:44:03;13.77;;;9.70;;
30539;SDS011;17321;46.312;4.776;2023-04-16T04:46:29;14.10;;;9.88;;
30539;SDS011;17321;46.312;4.776;2023-04-16T04:48:56;15.10;;;10.30;;
30539;SDS011;17321;46.312;4.776;2023-04-16T04:51:22;12.02;;;9.68;;
30539;SDS011;17321;46.312;4.776;2023-04-16T04:53:48;14.90;;;10.30;;
30539;SDS011;17321;46.312;4.776;2023-04-16T04:56:14;13.07;;;10.07;;
30539;SDS011;17321;46.312;4.776;2023-04-16T04:58:40;16.20;;;10.07;;
30539;SDS011;17321;46.312;4.776;2023-04-16T05:01:06;19.73;;;11.10;;
30539;SDS011;17321;46.312;4.776;2023-04-16T05:03:32;13.20;;;9.88;;
30539;SDS011;17321;46.312;4.776;2023-04-16T05:05:58;13.65;;;10.30;;
30539;SDS011;17321;46.312;4.776;2023-04-16T05:08:25;16.70;;;10.57;;
30539;SDS011;17321;46.312;4.776;2023-04-16T05:10:51;16.60;;;11.48;;
30539;SDS011;17321;46.312;4.776;2023-04-16T05:13:17;15.82;;;10.63;;
30539;SDS011;17321;46.312;4.776;2023-04-16T05:15:43;15.80;;;10.90;;
30539;SDS011;17321;46.312;4.776;2023-04-16T05:18:09;16.20;;;10.23;;
30539;SDS011;17321;46.312;4.776;2023-04-16T05:20:36;14.85;;;9.90;;
30539;SDS011;17321;46.312;4.776;2023-04-16T05:23:02;14.02;;;11.00;;
30539;SDS011;17321;46.312;4.776;2023-04-16T05:25:28;15.02;;;10.60;;
30539;SDS011;17321;46.312;4.776;2023-04-16T05:27:54;14.85;;;11.60;;
30539;SDS011;17321;46.312;4.776;2023-04-16T05:30:20;17.27;;;11.65;;
30539;SDS011;17321;46.312;4.776;2023-04-16T05:32:46;13.05;;;11.05;;
30539;SDS011;17321;46.312;4.776;2023-04-16T05:35:12;13.55;;;10.85;;
30539;SDS011;17321;46.312;4.776;2023-04-16T05:37:39;25.30;;;11.73;;
30539;SDS011;17321;46.312;4.776;2023-04-16T05:40:05;14.27;;;11.90;;
30539;SDS011;17321;46.312;4.776;2023-04-16T05:42:31;17.83;;;11.50;;
30539;SDS011;17321;46.312;4.776;2023-04-16T05:44:57;16.05;;;12.43;;
30539;SDS011;17321;46.312;4.776;2023-04-16T05:47:23;17.60;;;12.43;;
30539;SDS011;17321;46.312;4.776;2023-04-16T05:49:49;21.10;;;13.27;;
30539;SDS011;17321;46.312;4.776;2023-04-16T05:52:16;14.95;;;13.00;;
30539;SDS011;17321;46.312;4.776;2023-04-16T05:54:42;18.15;;;12.60;;
30539;SDS011;17321;46.312;4.776;2023-04-16T05:57:08;24.08;;;12.20;;
30539;SDS011;17321;46.312;4.776;2023-04-16T05:59:34;17.27;;;12.85;;
30539;SDS011;17321;46.312;4.776;2023-04-16T06:02:00;21.83;;;13.32;;
30539;SDS011;17321;46.312;4.776;2023-04-16T06:04:26;16.40;;;12.77;;
30539;SDS011;17321;46.312;4.776;2023-04-16T06:06:53;15.35;;;12.75;;
30539;SDS011;17321;46.312;4.776;2023-04-16T06:09:20;18.92;;;12.93;;
30539;SDS011;17321;46.312;4.776;2023-04-16T06:11:46;17.25;;;13.02;;
30539;SDS011;17321;46.312;4.776;2023-04-16T06:14:12;18.38;;;12.63;;
30539;SDS011;17321;46.312;4.776;2023-04-16T06:16:38;16.95;;;13.30;;
30539;SDS011;17321;46.312;4.776;2023-04-16T06:19:04;20.05;;;13.50;;
30539;SDS011;17321;46.312;4.776;2023-04-16T06:21:30;22.15;;;12.30;;
30539;SDS011;17321;46.312;4.776;2023-04-16T06:23:57;17.17;;;13.07;;
30539;SDS011;17321;46.312;4.776;2023-04-16T06:26:23;16.60;;;13.45;;
30539;SDS011;17321;46.312;4.776;2023-04-16T06:28:49;15.80;;;12.70;;
30539;SDS011;17321;46.312;4.776;2023-04-16T06:31:15;15.60;;;12.38;;
30539;SDS011;17321;46.312;4.776;2023-04-16T06:33:42;19.80;;;12.70;;
30539;SDS011;17321;46.312;4.776;2023-04-16T06:36:08;13.02;;;11.38;;
30539;SDS011;17321;46.312;4.776;2023-04-16T06:38:35;19.33;;;13.15;;
30539;SDS011;17321;46.312;4.776;2023-04-16T06:41:01;16.58;;;11.43;;
30539;SDS011;17321;46.312;4.776;2023-04-16T06:43:28;16.58;;;11.30;;
30539;SDS011;17321;46.312;4.776;2023-04-16T06:45:55;13.50;;;11.48;;
30539;SDS011;17321;46.312;4.776;2023-04-16T06:48:21;15.25;;;12.15;;
30539;SDS011;17321;46.312;4.776;2023-04-16T06:50:47;15.98;;;11.95;;
30539;SDS011;17321;46.312;4.776;2023-04-16T06:53:14;16.52;;;13.32;;
30539;SDS011;17321;46.312;4.776;2023-04-16T06:55:40;12.75;;;10.63;;
30539;SDS011;17321;46.312;4.776;2023-04-16T06:58:06;17.25;;;11.52;;
30539;SDS011;17321;46.312;4.776;2023-04-16T07:00:32;15.07;;;11.48;;
30539;SDS011;17321;46.312;4.776;2023-04-16T07:02:59;15.60;;;10.50;;
30539;SDS011;17321;46.312;4.776;2023-04-16T07:05:25;17.80;;;11.00;;
30539;SDS011;17321;46.312;4.776;2023-04-16T07:07:52;14.05;;;10.88;;
30539;SDS011;17321;46.312;4.776;2023-04-16T07:10:20;18.38;;;10.95;;
30539;SDS011;17321;46.312;4.776;2023-04-16T07:12:46;17.70;;;12.15;;
30539;SDS011;17321;46.312;4.776;2023-04-16T07:15:12;14.18;;;10.98;;
30539;SDS011;17321;46.312;4.776;2023-04-16T07:17:38;12.80;;;11.05;;
30539;SDS011;17321;46.312;4.776;2023-04-16T07:20:04;15.77;;;11.38;;
30539;SDS011;17321;46.312;4.776;2023-04-16T07:22:31;15.82;;;10.85;;
30539;SDS011;17321;46.312;4.776;2023-04-16T07:24:57;16.08;;;11.77;;
30539;SDS011;17321;46.312;4.776;2023-04-16T07:27:23;14.13;;;10.88;;
30539;SDS011;17321;46.312;4.776;2023-04-16T07:29:49;16.65;;;12.20;;
30539;SDS011;17321;46.312;4.776;2023-04-16T07:32:15;14.85;;;11.07;;
30539;SDS011;17321;46.312;4.776;2023-04-16T07:34:41;16.83;;;10.75;;
30539;SDS011;17321;46.312;4.776;2023-04-16T07:37:07;19.83;;;11.02;;
30539;SDS011;17321;46.312;4.776;2023-04-16T07:39:34;15.93;;;10.75;;
30539;SDS011;17321;46.312;4.776;2023-04-16T07:42:00;17.88;;;10.65;;
30539;SDS011;17321;46.312;4.776;2023-04-16T07:44:26;13.50;;;10.55;;
30539;SDS011;17321;46.312;4.776;2023-04-16T07:46:52;14.73;;;9.35;;
30539;SDS011;17321;46.312;4.776;2023-04-16T07:49:18;12.77;;;9.68;;
30539;SDS011;17321;46.312;4.776;2023-04-16T07:51:45;14.90;;;9.88;;
30539;SDS011;17321;46.312;4.776;2023-04-16T07:54:11;15.23;;;9.68;;
30539;SDS011;17321;46.312;4.776;2023-04-16T07:56:37;15.80;;;10.68;;
30539;SDS011;17321;46.312;4.776;2023-04-16T07:59:03;15.93;;;11.25;;
30539;SDS011;17321;46.312;4.776;2023-04-16T08:01:30;12.15;;;10.15;;
30539;SDS011;17321;46.312;4.776;2023-04-16T08:03:56;15.93;;;10.63;;
30539;SDS011;17321;46.312;4.776;2023-04-16T08:06:22;12.35;;;9.32;;
30539;SDS011;17321;46.312;4.776;2023-04-16T08:08:48;15.98;;;9.05;;
30539;SDS011;17321;46.312;4.776;2023-04-16T08:11:14;10.90;;;9.32;;
30539;SDS011;17321;46.312;4.776;2023-04-16T08:13:40;11.63;;;8.98;;
30539;SDS011;17321;46.312;4.776;2023-04-16T08:16:06;13.25;;;8.98;;
30539;SDS011;17321;46.312;4.776;2023-04-16T08:18:33;14.50;;;9.57;;
30539;SDS011;17321;46.312;4.776;2023-04-16T08:20:59;12.63;;;9.05;;
30539;SDS011;17321;46.312;4.776;2023-04-16T08:23:25;11.05;;;9.05;;
30539;SDS011;17321;46.312;4.776;2023-04-16T08:25:51;16.00;;;9.10;;
30539;SDS011;17321;46.312;4.776;2023-04-16T08:28:17;12.82;;;8.57;;
30539;SDS011;17321;46.312;4.776;2023-04-16T08:30:43;15.50;;;9.80;;
30539;SDS011;17321;46.312;4.776;2023-04-16T08:33:10;12.90;;;8.80;;
30539;SDS011;17321;46.312;4.776;2023-04-16T08:35:38;13.25;;;9.15;;
30539;SDS011;17321;46.312;4.776;2023-04-16T08:38:05;12.63;;;8.95;;
30539;SDS011;17321;46.312;4.776;2023-04-16T08:40:31;15.00;;;8.80;;
30539;SDS011;17321;46.312;4.776;2023-04-16T08:42:59;15.70;;;8.27;;
30539;SDS011;17321;46.312;4.776;2023-04-16T08:45:27;12.52;;;7.97;;
30539;SDS011;17321;46.312;4.776;2023-04-16T08:47:54;11.52;;;7.68;;
30539;SDS011;17321;46.312;4.776;2023-04-16T08:50:23;17.88;;;9.55;;
30539;SDS011;17321;46.312;4.776;2023-04-16T08:55:22;8.05;;;7.22;;
30539;SDS011;17321;46.312;4.776;2023-04-16T08:57:56;9.23;;;7.22;;
30539;SDS011;17321;46.312;4.776;2023-04-16T09:00:22;9.00;;;6.90;;
30539;SDS011;17321;46.312;4.776;2023-04-16T09:02:49;7.80;;;6.15;;
30539;SDS011;17321;46.312;4.776;2023-04-16T09:05:16;9.75;;;7.13;;
30539;SDS011;17321;46.312;4.776;2023-04-16T09:07:44;9.32;;;7.10;;
30539;SDS011;17321;46.312;4.776;2023-04-16T09:10:10;11.57;;;7.68;;
30539;SDS011;17321;46.312;4.776;2023-04-16T09:12:36;7.93;;;7.15;;
30539;SDS011;17321;46.312;4.776;2023-04-16T09:15:03;9.77;;;7.68;;
30539;SDS011;17321;46.312;4.776;2023-04-16T09:17:29;11.38;;;7.78;;
30539;SDS011;17321;46.312;4.776;2023-04-16T09:19:57;11.13;;;8.00;;
30539;SDS011;17321;46.312;4.776;2023-04-16T09:22:23;15.48;;;8.18;;
30539;SDS011;17321;46.312;4.776;2023-04-16T09:24:49;10.38;;;7.97;;
30539;SDS011;17321;46.312;4.776;2023-04-16T09:27:16;11.45;;;7.32;;
30539;SDS011;17321;46.312;4.776;2023-04-16T09:29:42;9.80;;;7.75;;
30539;SDS011;17321;46.312;4.776;2023-04-16T09:32:09;11.65;;;8.65;;
30539;SDS011;17321;46.312;4.776;2023-04-16T09:34:52;13.20;;;8.57;;
30539;SDS011;17321;46.312;4.776;2023-04-16T09:37:18;10.40;;;8.20;;
30539;SDS011;17321;46.312;4.776;2023-04-16T09:39:51;14.55;;;8.90;;
30539;SDS011;17321;46.312;4.776;2023-04-16T09:42:25;10.20;;;8.25;;
30539;SDS011;17321;46.312;4.776;2023-04-16T09:44:52;12.32;;;7.93;;
30539;SDS011;17321;46.312;4.776;2023-04-16T09:47:18;12.73;;;8.80;;
30539;SDS011;17321;46.312;4.776;2023-04-16T09:49:44;12.55;;;9.75;;
30539;SDS011;17321;46.312;4.776;2023-04-16T09:52:21;12.07;;;9.65;;
30539;SDS011;17321;46.312;4.776;2023-04-16T09:54:48;15.32;;;10.07;;
30539;SDS011;17321;46.312;4.776;2023-04-16T09:57:20;11.07;;;9.38;;
30539;SDS011;17321;46.312;4.776;2023-04-16T09:59:47;13.77;;;9.48;;
30539;SDS011;17321;46.312;4.776;2023-04-16T10:02:13;17.00;;;10.50;;
30539;SDS011;17321;46.312;4.776;2023-04-16T10:04:49;16.50;;;9.30;;
30539;SDS011;17321;46.312;4.776;2023-04-16T10:07:16;11.85;;;9.05;;
30539;SDS011;17321;46.312;4.776;2023-04-16T10:09:42;14.23;;;10.50;;
30539;SDS011;17321;46.312;4.776;2023-04-16T10:12:09;13.57;;;9.20;;
30539;SDS011;17321;46.312;4.776;2023-04-16T10:14:36;15.88;;;9.38;;
30539;SDS011;17321;46.312;4.776;2023-04-16T10:17:03;13.13;;;9.38;;
30539;SDS011;17321;46.312;4.776;2023-04-16T10:19:30;15.05;;;10.75;;
30539;SDS011;17321;46.312;4.776;2023-04-16T10:21:56;10.50;;;9.48;;
30539;SDS011;17321;46.312;4.776;2023-04-16T10:24:27;10.90;;;9.77;;
30539;SDS011;17321;46.312;4.776;2023-04-16T10:26:53;13.50;;;9.20;;
30539;SDS011;17321;46.312;4.776;2023-04-16T10:29:20;14.05;;;9.45;;
30539;SDS011;17321;46.312;4.776;2023-04-16T10:31:46;11.52;;;9.25;;
30539;SDS011;17321;46.312;4.776;2023-04-16T10:34:13;13.40;;;8.55;;
30539;SDS011;17321;46.312;4.776;2023-04-16T10:36:40;12.32;;;8.70;;
30539;SDS011;17321;46.312;4.776;2023-04-16T10:39:10;15.90;;;9.23;;
30539;SDS011;17321;46.312;4.776;2023-04-16T10:41:36;16.08;;;9.25;;
30539;SDS011;17321;46.312;4.776;2023-04-16T10:44:03;14.85;;;9.48;;
30539;SDS011;17321;46.312;4.776;2023-04-16T10:46:39;21.77;;;10.13;;
30539;SDS011;17321;46.312;4.776;2023-04-16T10:49:18;18.15;;;9.68;;
30539;SDS011;17321;46.312;4.776;2023-04-16T10:56:38;14.93;;;10.45;;
30539;SDS011;17321;46.312;4.776;2023-04-16T10:59:05;11.65;;;9.88;;
30539;SDS011;17321;46.312;4.776;2023-04-16T11:02:14;16.95;;;9.45;;
30539;SDS011;17321;46.312;4.776;2023-04-16T11:12:01;14.15;;;10.30;;
30539;SDS011;17321;46.312;4.776;2023-04-16T11:14:28;17.83;;;10.13;;
30539;SDS011;17321;46.312;4.776;2023-04-16T11:16:54;17.73;;;9.60;;
30539;SDS011;17321;46.312;4.776;2023-04-16T11:19:20;14.85;;;9.35;;
30539;SDS011;17321;46.312;4.776;2023-04-16T11:21:46;17.55;;;9.60;;
30539;SDS011;17321;46.312;4.776;2023-04-16T11:24:13;19.70;;;10.18;;
30539;SDS011;17321;46.312;4.776;2023-04-16T11:26:39;17.38;;;9.52;;
30539;SDS011;17321;46.312;4.776;2023-04-16T11:29:12;15.32;;;9.82;;
30539;SDS011;17321;46.312;4.776;2023-04-16T11:31:39;13.80;;;9.52;;
30539;SDS011;17321;46.312;4.776;2023-04-16T11:34:08;14.55;;;9.32;;
30539;SDS011;17321;46.312;4.776;2023-04-16T11:39:01;16.40;;;9.68;;
30539;SDS011;17321;46.312;4.776;2023-04-16T11:41:27;17.95;;;9.88;;
30539;SDS011;17321;46.312;4.776;2023-04-16T11:43:53;15.75;;;9.77;;
30539;SDS011;17321;46.312;4.776;2023-04-16T11:46:19;14.70;;;9.65;;
30539;SDS011;17321;46.312;4.776;2023-04-16T11:48:49;16.05;;;10.07;;
30539;SDS011;17321;46.312;4.776;2023-04-16T11:51:16;13.57;;;10.07;;
30539;SDS011;17321;46.312;4.776;2023-04-16T11:53:52;17.73;;;10.00;;
30539;SDS011;17321;46.312;4.776;2023-04-16T11:56:25;16.45;;;9.55;;
30539;SDS011;17321;46.312;4.776;2023-04-16T11:59:08;17.50;;;9.68;;
30539;SDS011;17321;46.312;4.776;2023-04-16T12:01:34;15.60;;;9.50;;
30539;SDS011;17321;46.312;4.776;2023-04-16T12:04:01;16.88;;;11.10;;
30539;SDS011;17321;46.312;4.776;2023-04-16T12:06:27;17.40;;;10.25;;
30539;SDS011;17321;46.312;4.776;2023-04-16T12:08:53;19.17;;;10.65;;
30539;SDS011;17321;46.312;4.776;2023-04-16T12:11:20;13.18;;;9.52;;
30539;SDS011;17321;46.312;4.776;2023-04-16T12:16:30;20.95;;;13.35;;
30539;SDS011;17321;46.312;4.776;2023-04-16T12:18:57;19.08;;;11.15;;
30539;SDS011;17321;46.312;4.776;2023-04-16T12:21:24;16.92;;;10.93;;
30539;SDS011;17321;46.312;4.776;2023-04-16T12:23:52;14.90;;;11.25;;
30539;SDS011;17321;46.312;4.776;2023-04-16T12:26:18;19.37;;;11.07;;
30539;SDS011;17321;46.312;4.776;2023-04-16T12:28:45;15.90;;;11.85;;
30539;SDS011;17321;46.312;4.776;2023-04-16T12:31:11;18.17;;;11.32;;
30539;SDS011;17321;46.312;4.776;2023-04-16T12:33:38;16.02;;;12.15;;
30539;SDS011;17321;46.312;4.776;2023-04-16T12:36:15;13.60;;;11.02;;
30539;SDS011;17321;46.312;4.776;2023-04-16T12:38:42;18.52;;;12.18;;
30539;SDS011;17321;46.312;4.776;2023-04-16T12:41:08;16.55;;;12.05;;
30539;SDS011;17321;46.312;4.776;2023-04-16T12:43:35;18.60;;;12.95;;
30539;SDS011;17321;46.312;4.776;2023-04-16T12:46:01;45.33;;;28.67;;
30539;SDS011;17321;46.312;4.776;2023-04-16T12:48:27;19.33;;;12.60;;
30539;SDS011;17321;46.312;4.776;2023-04-16T12:50:53;18.42;;;12.93;;
30539;SDS011;17321;46.312;4.776;2023-04-16T12:53:20;22.23;;;13.57;;
30539;SDS011;17321;46.312;4.776;2023-04-16T12:55:46;20.00;;;13.68;;
30539;SDS011;17321;46.312;4.776;2023-04-16T12:58:12;23.65;;;14.80;;
30539;SDS011;17321;46.312;4.776;2023-04-16T13:00:38;20.77;;;14.90;;
30539;SDS011;17321;46.312;4.776;2023-04-16T13:03:04;20.08;;;14.18;;
30539;SDS011;17321;46.312;4.776;2023-04-16T13:05:30;21.90;;;14.50;;
30539;SDS011;17321;46.312;4.776;2023-04-16T13:07:56;17.58;;;14.18;;
30539;SDS011;17321;46.312;4.776;2023-04-16T13:10:23;17.77;;;13.60;;
30539;SDS011;17321;46.312;4.776;2023-04-16T13:12:49;19.77;;;15.70;;
30539;SDS011;17321;46.312;4.776;2023-04-16T13:15:15;16.80;;;12.85;;
30539;SDS011;17321;46.312;4.776;2023-04-16T13:17:41;19.92;;;13.40;;
30539;SDS011;17321;46.312;4.776;2023-04-16T13:20:07;20.67;;;13.85;;
30539;SDS011;17321;46.312;4.776;2023-04-16T13:22:34;19.00;;;13.90;;
30539;SDS011;17321;46.312;4.776;2023-04-16T13:25:00;22.98;;;13.23;;
30539;SDS011;17321;46.312;4.776;2023-04-16T13:27:26;18.30;;;14.35;;
30539;SDS011;17321;46.312;4.776;2023-04-16T13:29:52;19.77;;;14.85;;
30539;SDS011;17321;46.312;4.776;2023-04-16T13:32:18;18.70;;;14.35;;
30539;SDS011;17321;46.312;4.776;2023-04-16T13:34:44;21.55;;;16.65;;
30539;SDS011;17321;46.312;4.776;2023-04-16T13:37:11;21.88;;;15.77;;
30539;SDS011;17321;46.312;4.776;2023-04-16T13:39:37;19.23;;;14.73;;
30539;SDS011;17321;46.312;4.776;2023-04-16T13:42:04;21.17;;;15.60;;
30539;SDS011;17321;46.312;4.776;2023-04-16T13:44:30;23.33;;;15.80;;
30539;SDS011;17321;46.312;4.776;2023-04-16T13:46:56;20.38;;;14.60;;
30539;SDS011;17321;46.312;4.776;2023-04-16T13:49:22;19.75;;;15.68;;
30539;SDS011;17321;46.312;4.776;2023-04-16T13:51:48;20.67;;;15.65;;
30539;SDS011;17321;46.312;4.776;2023-04-16T13:54:14;22.23;;;14.65;;
30539;SDS011;17321;46.312;4.776;2023-04-16T13:56:40;23.27;;;15.25;;
30539;SDS011;17321;46.312;4.776;2023-04-16T13:59:07;23.52;;;15.57;;
30539;SDS011;17321;46.312;4.776;2023-04-16T14:01:33;22.92;;;16.55;;
30539;SDS011;17321;46.312;4.776;2023-04-16T14:03:59;18.33;;;13.85;;
30539;SDS011;17321;46.312;4.776;2023-04-16T14:06:30;21.13;;;15.43;;
30539;SDS011;17321;46.312;4.776;2023-04-16T14:08:56;19.90;;;14.48;;
30539;SDS011;17321;46.312;4.776;2023-04-16T14:11:22;17.33;;;14.38;;
30539;SDS011;17321;46.312;4.776;2023-04-16T14:13:48;22.45;;;15.10;;
30539;SDS011;17321;46.312;4.776;2023-04-16T14:16:14;23.02;;;14.35;;
30539;SDS011;17321;46.312;4.776;2023-04-16T14:18:40;19.65;;;15.05;;
30539;SDS011;17321;46.312;4.776;2023-04-16T14:21:07;20.40;;;15.02;;
30539;SDS011;17321;46.312;4.776;2023-04-16T14:23:33;21.00;;;15.07;;
30539;SDS011;17321;46.312;4.776;2023-04-16T14:25:59;20.33;;;13.27;;
30539;SDS011;17321;46.312;4.776;2023-04-16T14:28:25;20.67;;;13.60;;
30539;SDS011;17321;46.312;4.776;2023-04-16T14:30:51;20.77;;;15.10;;
30539;SDS011;17321;46.312;4.776;2023-04-16T14:33:17;18.92;;;14.02;;
30539;SDS011;17321;46.312;4.776;2023-04-16T14:35:43;20.70;;;14.00;;
30539;SDS011;17321;46.312;4.776;2023-04-16T14:38:10;20.55;;;15.18;;
30539;SDS011;17321;46.312;4.776;2023-04-16T14:40:36;22.38;;;14.98;;
30539;SDS011;17321;46.312;4.776;2023-04-16T14:43:02;18.58;;;14.30;;
30539;SDS011;17321;46.312;4.776;2023-04-16T14:45:28;27.13;;;17.38;;
30539;SDS011;17321;46.312;4.776;2023-04-16T14:47:56;23.70;;;17.58;;
30539;SDS011;17321;46.312;4.776;2023-04-16T14:50:22;31.55;;;18.83;;